Univ of Ark at Fayetteville, Arkansas
Current Conditions -  °F | °C
As of 1:53 PM on Monday 24 Nov 2014 (Local Time) from KFYV Reporting Station
Clear Clear  
Wind Chill: 51°   Ceiling: Unl
Heat Index: 51°   Visibility: 10mi
Dew Point: 26°   Wind: 13mph
Humidity: 38%   Direction: 270°W
Pressure: 29.88"   Gusts: 24mph
Location:  35.9902°N, 94.083°W
Report Text: KFYV 241953Z 27011G21KT 10SM CLR 11/M03 A2988 RMK AO2 SLP120 T01061033
Loading
Personal Weather Stations






























Interactive Weather Map New forecast layout! Learn more

10-Day Weather Forecast

Advertisements
Track Severe Weather on mobile